sensor_id;sensor_type;location;lat;lon;timestamp;pressure;altitude;pressure_sealevel;temperature;humidity
13476;BME280;6810;63.824;20.288;2023-05-09T00:02:44;102215.97;;;6.74;67.63
13476;BME280;6810;63.824;20.288;2023-05-09T00:05:32;102213.31;;;6.74;67.21
13476;BME280;6810;63.824;20.288;2023-05-09T00:08:19;102205.31;;;6.75;67.55
13476;BME280;6810;63.824;20.288;2023-05-09T00:11:06;102200.91;;;6.74;67.15
13476;BME280;6810;63.824;20.288;2023-05-09T00:13:53;102210.56;;;6.78;67.22
13476;BME280;6810;63.824;20.288;2023-05-09T00:16:40;102210.56;;;6.78;67.09
13476;BME280;6810;63.824;20.288;2023-05-09T00:19:27;102202.72;;;6.74;67.88
13476;BME280;6810;63.824;20.288;2023-05-09T00:22:15;102202.66;;;6.77;67.37
13476;BME280;6810;63.824;20.288;2023-05-09T00:25:02;102186.06;;;6.66;67.05
13476;BME280;6810;63.824;20.288;2023-05-09T00:27:49;102184.28;;;6.66;67.78
13476;BME280;6810;63.824;20.288;2023-05-09T00:30:37;102191.28;;;6.70;67.67
13476;BME280;6810;63.824;20.288;2023-05-09T00:33:24;102189.47;;;6.74;67.31
13476;BME280;6810;63.824;20.288;2023-05-09T00:36:14;102180.59;;;6.75;67.51
13476;BME280;6810;63.824;20.288;2023-05-09T00:39:01;102171.97;;;6.64;68.07
13476;BME280;6810;63.824;20.288;2023-05-09T00:41:48;102189.44;;;6.75;67.42
13476;BME280;6810;63.824;20.288;2023-05-09T00:44:35;102182.31;;;6.76;67.44
13476;BME280;6810;63.824;20.288;2023-05-09T00:47:22;102190.31;;;6.74;67.61
13476;BME280;6810;63.824;20.288;2023-05-09T00:50:09;102200.06;;;6.72;68.41
13476;BME280;6810;63.824;20.288;2023-05-09T00:52:57;102182.41;;;6.71;67.72
13476;BME280;6810;63.824;20.288;2023-05-09T00:55:44;102130.97;;;6.37;67.87
13476;BME280;6810;63.824;20.288;2023-05-09T00:58:31;102185.91;;;6.75;67.88
13476;BME280;6810;63.824;20.288;2023-05-09T01:01:18;102172.63;;;6.76;68.42
13476;BME280;6810;63.824;20.288;2023-05-09T01:04:06;102169.97;;;6.76;68.43
13476;BME280;6810;63.824;20.288;2023-05-09T01:09:55;102169.97;;;6.76;68.37
13476;BME280;6810;63.824;20.288;2023-05-09T01:13:03;102165.56;;;6.75;68.59
13476;BME280;6810;63.824;20.288;2023-05-09T01:16:00;102163.81;;;6.74;68.53
13476;BME280;6810;63.824;20.288;2023-05-09T01:22:33;102152.38;;;6.71;68.73
13476;BME280;6810;63.824;20.288;2023-05-09T01:25:34;102170.06;;;6.72;68.14
13476;BME280;6810;63.824;20.288;2023-05-09T01:31:33;102158.59;;;6.70;69.18
13476;BME280;6810;63.824;20.288;2023-05-09T01:34:27;102122.84;;;6.48;68.43
13476;BME280;6810;63.824;20.288;2023-05-09T01:37:15;102154.28;;;6.66;69.23
13476;BME280;6810;63.824;20.288;2023-05-09T01:40:23;102140.31;;;6.58;69.21
13476;BME280;6810;63.824;20.288;2023-05-09T01:43:15;102140.25;;;6.61;68.66
13476;BME280;6810;63.824;20.288;2023-05-09T01:46:04;102155.97;;;6.68;69.61
13476;BME280;6810;63.824;20.288;2023-05-09T01:48:52;102106.97;;;6.48;69.28
13476;BME280;6810;63.824;20.288;2023-05-09T01:51:40;102146.31;;;6.67;69.18
13476;BME280;6810;63.824;20.288;2023-05-09T01:54:29;102103.50;;;6.43;69.29
13476;BME280;6810;63.824;20.288;2023-05-09T01:57:18;102137.50;;;6.65;69.20
13476;BME280;6810;63.824;20.288;2023-05-09T02:00:07;102122.69;;;6.55;69.63
13476;BME280;6810;63.824;20.288;2023-05-09T02:02:56;102123.44;;;6.62;69.35
13476;BME280;6810;63.824;20.288;2023-05-09T02:05:44;102130.53;;;6.61;70.05
13476;BME280;6810;63.824;20.288;2023-05-09T02:08:32;102117.38;;;6.57;70.18
13476;BME280;6810;63.824;20.288;2023-05-09T02:11:19;102130.56;;;6.60;69.65
13476;BME280;6810;63.824;20.288;2023-05-09T02:14:06;102121.88;;;6.52;69.62
13476;BME280;6810;63.824;20.288;2023-05-09T02:16:53;102123.63;;;6.51;70.40
13476;BME280;6810;63.824;20.288;2023-05-09T02:19:42;102135.00;;;6.58;70.23
13476;BME280;6810;63.824;20.288;2023-05-09T02:22:49;102134.97;;;6.59;69.75
13476;BME280;6810;63.824;20.288;2023-05-09T02:25:37;102122.84;;;6.48;70.48
13476;BME280;6810;63.824;20.288;2023-05-09T02:28:26;102130.63;;;6.57;70.39
13476;BME280;6810;63.824;20.288;2023-05-09T02:31:15;102108.88;;;6.40;70.41
13476;BME280;6810;63.824;20.288;2023-05-09T02:34:04;102100.97;;;6.38;70.50
13476;BME280;6810;63.824;20.288;2023-05-09T02:36:53;102135.97;;;6.54;70.13
13476;BME280;6810;63.824;20.288;2023-05-09T02:39:40;102083.53;;;6.25;70.32
13476;BME280;6810;63.824;20.288;2023-05-09T02:42:28;102118.34;;;6.51;70.63
13476;BME280;6810;63.824;20.288;2023-05-09T02:45:15;102078.22;;;6.27;71.12
13476;BME280;6810;63.824;20.288;2023-05-09T02:48:02;102120.97;;;6.53;70.50
13476;BME280;6810;63.824;20.288;2023-05-09T02:50:49;102084.31;;;6.32;70.83
13476;BME280;6810;63.824;20.288;2023-05-09T02:53:36;102126.28;;;6.51;71.33
13476;BME280;6810;63.824;20.288;2023-05-09T02:56:24;102113.03;;;6.51;71.11
13476;BME280;6810;63.824;20.288;2023-05-09T02:59:11;102104.44;;;6.40;71.06
13476;BME280;6810;63.824;20.288;2023-05-09T03:02:00;102099.09;;;6.43;70.77
13476;BME280;6810;63.824;20.288;2023-05-09T03:04:48;102107.81;;;6.48;71.45
13476;BME280;6810;63.824;20.288;2023-05-09T03:07:36;102109.56;;;6.49;70.85
13476;BME280;6810;63.824;20.288;2023-05-09T03:10:23;102116.66;;;6.47;71.83
13476;BME280;6810;63.824;20.288;2023-05-09T03:13:10;102112.28;;;6.46;71.83
13476;BME280;6810;63.824;20.288;2023-05-09T03:15:57;102108.72;;;6.47;71.24
13476;BME280;6810;63.824;20.288;2023-05-09T03:18:44;102108.75;;;6.46;71.40
13476;BME280;6810;63.824;20.288;2023-05-09T03:21:31;102105.19;;;6.47;71.25
13476;BME280;6810;63.824;20.288;2023-05-09T03:24:19;102093.84;;;6.40;71.15
13476;BME280;6810;63.824;20.288;2023-05-09T03:27:06;102083.31;;;6.37;71.29
13476;BME280;6810;63.824;20.288;2023-05-09T03:29:53;102095.59;;;6.41;71.65
13476;BME280;6810;63.824;20.288;2023-05-09T03:32:42;102094.78;;;6.38;71.25
13476;BME280;6810;63.824;20.288;2023-05-09T03:35:29;102104.38;;;6.45;71.81
13476;BME280;6810;63.824;20.288;2023-05-09T03:38:16;102095.53;;;6.44;71.34
13476;BME280;6810;63.824;20.288;2023-05-09T03:41:04;102100.81;;;6.46;72.37
13476;BME280;6810;63.824;20.288;2023-05-09T03:43:51;102071.16;;;6.27;71.81
13476;BME280;6810;63.824;20.288;2023-05-09T03:46:39;102096.44;;;6.45;72.60
13476;BME280;6810;63.824;20.288;2023-05-09T03:49:31;102093.78;;;6.45;72.44
13476;BME280;6810;63.824;20.288;2023-05-09T03:52:21;102071.84;;;6.37;72.05
13476;BME280;6810;63.824;20.288;2023-05-09T03:55:09;102078.81;;;6.42;72.12
13476;BME280;6810;63.824;20.288;2023-05-09T03:57:56;102066.59;;;6.35;72.52
13476;BME280;6810;63.824;20.288;2023-05-09T04:00:44;102081.34;;;6.47;71.81
13476;BME280;6810;63.824;20.288;2023-05-09T04:03:31;102077.81;;;6.48;72.18
13476;BME280;6810;63.824;20.288;2023-05-09T04:06:19;102078.72;;;6.45;71.97
13476;BME280;6810;63.824;20.288;2023-05-09T04:09:08;102079.53;;;6.50;72.46
13476;BME280;6810;63.824;20.288;2023-05-09T04:11:55;102070.69;;;6.50;72.65
13476;BME280;6810;63.824;20.288;2023-05-09T04:14:43;102065.41;;;6.50;72.13
13476;BME280;6810;63.824;20.288;2023-05-09T04:17:30;102056.56;;;6.51;72.52
13476;BME280;6810;63.824;20.288;2023-05-09T04:20:18;102062.69;;;6.53;72.99
13476;BME280;6810;63.824;20.288;2023-05-09T04:23:05;102032.94;;;6.42;72.64
13476;BME280;6810;63.824;20.288;2023-05-09T04:25:53;102050.34;;;6.53;72.51
13476;BME280;6810;63.824;20.288;2023-05-09T04:28:43;102039.81;;;6.50;72.40
13476;BME280;6810;63.824;20.288;2023-05-09T04:31:31;102013.56;;;6.38;72.92
13476;BME280;6810;63.824;20.288;2023-05-09T04:34:21;102027.56;;;6.45;73.04
13476;BME280;6810;63.824;20.288;2023-05-09T04:37:14;102030.19;;;6.46;72.93
13476;BME280;6810;63.824;20.288;2023-05-09T04:40:02;102045.81;;;6.58;73.43
13476;BME280;6810;63.824;20.288;2023-05-09T04:42:56;102051.00;;;6.64;73.26
13476;BME280;6810;63.824;20.288;2023-05-09T04:45:44;102044.75;;;6.67;72.87
13476;BME280;6810;63.824;20.288;2023-05-09T04:48:33;102049.09;;;6.69;73.18
13476;BME280;6810;63.824;20.288;2023-05-09T04:51:20;102013.22;;;6.55;73.17
13476;BME280;6810;63.824;20.288;2023-05-09T04:54:07;102041.91;;;6.76;73.22
13476;BME280;6810;63.824;20.288;2023-05-09T04:56:54;102056.00;;;6.78;73.03
13476;BME280;6810;63.824;20.288;2023-05-09T04:59:50;102052.50;;;6.76;73.16
13476;BME280;6810;63.824;20.288;2023-05-09T05:02:38;102067.38;;;6.83;72.72
13476;BME280;6810;63.824;20.288;2023-05-09T05:05:27;102058.50;;;6.84;72.81
13476;BME280;6810;63.824;20.288;2023-05-09T05:08:14;102055.81;;;6.85;72.82
13476;BME280;6810;63.824;20.288;2023-05-09T05:11:01;102052.25;;;6.86;73.38
13476;BME280;6810;63.824;20.288;2023-05-09T05:13:49;102022.56;;;6.71;73.12
13476;BME280;6810;63.824;20.288;2023-05-09T05:16:36;102048.72;;;6.87;72.70
13476;BME280;6810;63.824;20.288;2023-05-09T05:19:23;102032.88;;;6.84;73.18
13476;BME280;6810;63.824;20.288;2023-05-09T05:22:12;102038.06;;;6.90;73.29
13476;BME280;6810;63.824;20.288;2023-05-09T05:24:59;101979.59;;;6.58;72.89
13476;BME280;6810;63.824;20.288;2023-05-09T05:27:48;101998.50;;;6.81;73.23
13476;BME280;6810;63.824;20.288;2023-05-09T05:30:36;102016.63;;;6.99;73.30
13476;BME280;6810;63.824;20.288;2023-05-09T05:33:23;101994.72;;;6.91;73.04
13476;BME280;6810;63.824;20.288;2023-05-09T05:36:11;101969.28;;;6.84;73.30
13476;BME280;6810;63.824;20.288;2023-05-09T05:38:58;102006.66;;;7.11;73.13
13476;BME280;6810;63.824;20.288;2023-05-09T05:41:46;102002.16;;;7.14;73.08
13476;BME280;6810;63.824;20.288;2023-05-09T05:44:33;101992.47;;;7.13;73.45
13476;BME280;6810;63.824;20.288;2023-05-09T05:47:21;101996.63;;;7.23;72.96
13476;BME280;6810;63.824;20.288;2023-05-09T05:50:09;101969.41;;;7.17;73.08
13476;BME280;6810;63.824;20.288;2023-05-09T05:52:57;101980.47;;;7.32;73.29
13476;BME280;6810;63.824;20.288;2023-05-09T05:55:44;101975.97;;;7.36;72.90
13476;BME280;6810;63.824;20.288;2023-05-09T05:58:32;101964.53;;;7.34;73.07
13476;BME280;6810;63.824;20.288;2023-05-09T06:01:19;101971.34;;;7.44;72.74
13476;BME280;6810;63.824;20.288;2023-05-09T06:04:07;101942.66;;;7.26;73.54
13476;BME280;6810;63.824;20.288;2023-05-09T06:06:54;101924.16;;;7.23;73.36
13476;BME280;6810;63.824;20.288;2023-05-09T06:09:41;101993.72;;;7.67;73.10
13476;BME280;6810;63.824;20.288;2023-05-09T06:12:28;101984.94;;;7.65;72.87
13476;BME280;6810;63.824;20.288;2023-05-09T06:15:17;101945.44;;;7.55;72.24
13476;BME280;6810;63.824;20.288;2023-05-09T06:18:04;101967.78;;;7.78;72.49
13476;BME280;6810;63.824;20.288;2023-05-09T06:20:52;101981.59;;;7.91;72.43
13476;BME280;6810;63.824;20.288;2023-05-09T06:23:39;101973.41;;;7.98;72.20
13476;BME280;6810;63.824;20.288;2023-05-09T06:26:37;101941.88;;;7.88;71.92
13476;BME280;6810;63.824;20.288;2023-05-09T06:29:25;101943.47;;;7.93;71.96
13476;BME280;6810;63.824;20.288;2023-05-09T06:32:12;101958.78;;;8.16;71.81
13476;BME280;6810;63.824;20.288;2023-05-09T06:34:59;101946.53;;;8.10;71.77
13476;BME280;6810;63.824;20.288;2023-05-09T06:37:46;101933.16;;;8.13;72.04
13476;BME280;6810;63.824;20.288;2023-05-09T06:40:33;101953.84;;;8.33;71.58
13476;BME280;6810;63.824;20.288;2023-05-09T06:43:21;101925.88;;;8.20;71.04
13476;BME280;6810;63.824;20.288;2023-05-09T06:46:08;101894.34;;;8.09;71.00
13476;BME280;6810;63.824;20.288;2023-05-09T06:48:56;101921.22;;;8.29;71.09
13476;BME280;6810;63.824;20.288;2023-05-09T06:51:43;101910.44;;;8.34;71.43
13476;BME280;6810;63.824;20.288;2023-05-09T06:54:30;101940.56;;;8.62;70.83
13476;BME280;6810;63.824;20.288;2023-05-09T06:57:17;101943.91;;;8.68;70.34
13476;BME280;6810;63.824;20.288;2023-05-09T07:00:05;101928.84;;;8.69;70.94
13476;BME280;6810;63.824;20.288;2023-05-09T07:02:52;101897.16;;;8.63;70.38
13476;BME280;6810;63.824;20.288;2023-05-09T07:05:39;101921.31;;;8.83;69.60
13476;BME280;6810;63.824;20.288;2023-05-09T07:08:26;101895.72;;;8.79;69.62
13476;BME280;6810;63.824;20.288;2023-05-09T07:11:14;101929.56;;;9.02;69.50
13476;BME280;6810;63.824;20.288;2023-05-09T07:14:01;101927.56;;;9.08;69.84
13476;BME280;6810;63.824;20.288;2023-05-09T07:16:48;101924.69;;;9.14;69.71
13476;BME280;6810;63.824;20.288;2023-05-09T07:19:50;101919.13;;;9.22;69.51
13476;BME280;6810;63.824;20.288;2023-05-09T07:22:37;101918.22;;;9.23;68.98
13476;BME280;6810;63.824;20.288;2023-05-09T07:25:24;101740.75;;;8.25;68.37
13476;BME280;6810;63.824;20.288;2023-05-09T07:28:11;101916.91;;;9.34;68.86
13476;BME280;6810;63.824;20.288;2023-05-09T07:30:58;101925.47;;;9.44;68.51
13476;BME280;6810;63.824;20.288;2023-05-09T07:33:46;101877.50;;;9.21;68.81
13476;BME280;6810;63.824;20.288;2023-05-09T07:36:33;101927.97;;;9.48;67.75
13476;BME280;6810;63.824;20.288;2023-05-09T07:39:20;101887.53;;;9.37;68.01
13476;BME280;6810;63.824;20.288;2023-05-09T07:42:07;101915.31;;;9.55;67.62
13476;BME280;6810;63.824;20.288;2023-05-09T07:44:54;101922.94;;;9.65;67.86
13476;BME280;6810;63.824;20.288;2023-05-09T07:47:42;101909.72;;;9.62;67.68
13476;BME280;6810;63.824;20.288;2023-05-09T07:50:30;101890.44;;;9.56;67.67
13476;BME280;6810;63.824;20.288;2023-05-09T07:53:17;101911.03;;;9.75;67.30
13476;BME280;6810;63.824;20.288;2023-05-09T07:56:04;101911.78;;;9.79;67.47
13476;BME280;6810;63.824;20.288;2023-05-09T07:58:54;101888.09;;;9.71;67.00
13476;BME280;6810;63.824;20.288;2023-05-09T08:01:41;101910.63;;;9.86;66.62
13476;BME280;6810;63.824;20.288;2023-05-09T08:04:28;101880.06;;;9.73;66.69
13476;BME280;6810;63.824;20.288;2023-05-09T08:07:15;101885.16;;;9.79;67.17
13476;BME280;6810;63.824;20.288;2023-05-09T08:10:03;101909.34;;;9.97;66.63
13476;BME280;6810;63.824;20.288;2023-05-09T08:12:51;101911.00;;;10.00;66.56
13476;BME280;6810;63.824;20.288;2023-05-09T08:15:38;101906.50;;;10.02;66.87
13476;BME280;6810;63.824;20.288;2023-05-09T08:18:26;101875.84;;;9.90;66.28
13476;BME280;6810;63.824;20.288;2023-05-09T08:21:13;101912.41;;;10.11;66.62
13476;BME280;6810;63.824;20.288;2023-05-09T08:24:00;101880.91;;;9.98;66.05
13476;BME280;6810;63.824;20.288;2023-05-09T08:26:47;101884.09;;;10.07;66.06
13476;BME280;6810;63.824;20.288;2023-05-09T08:29:34;101901.44;;;10.19;65.56
13476;BME280;6810;63.824;20.288;2023-05-09T08:32:21;101881.91;;;10.18;65.50
13476;BME280;6810;63.824;20.288;2023-05-09T08:35:09;101899.31;;;10.28;66.23
13476;BME280;6810;63.824;20.288;2023-05-09T08:37:56;101887.59;;;10.32;65.47
13476;BME280;6810;63.824;20.288;2023-05-09T08:40:43;101850.13;;;10.14;65.82
13476;BME280;6810;63.824;20.288;2023-05-09T08:43:32;101872.91;;;10.44;65.65
13476;BME280;6810;63.824;20.288;2023-05-09T08:46:29;101872.19;;;10.40;64.58
13476;BME280;6810;63.824;20.288;2023-05-09T08:49:16;101865.66;;;10.47;64.81
13476;BME280;6810;63.824;20.288;2023-05-09T08:52:04;101879.19;;;10.65;64.95
13476;BME280;6810;63.824;20.288;2023-05-09T08:54:52;101871.06;;;10.68;64.33
13476;BME280;6810;63.824;20.288;2023-05-09T08:57:39;101843.97;;;10.57;64.08
13476;BME280;6810;63.824;20.288;2023-05-09T09:00:28;101870.63;;;10.78;64.63
13476;BME280;6810;63.824;20.288;2023-05-09T09:03:16;101842.38;;;10.74;63.50
13476;BME280;6810;63.824;20.288;2023-05-09T09:06:04;101850.97;;;10.81;63.29
13476;BME280;6810;63.824;20.288;2023-05-09T09:08:54;101866.44;;;10.94;63.99
13476;BME280;6810;63.824;20.288;2023-05-09T09:11:41;101852.78;;;11.02;62.78
13476;BME280;6810;63.824;20.288;2023-05-09T09:14:30;101853.41;;;11.07;62.85
13476;BME280;6810;63.824;20.288;2023-05-09T09:17:19;101849.50;;;11.15;62.52
13476;BME280;6810;63.824;20.288;2023-05-09T09:20:10;101850.84;;;11.25;62.61
13476;BME280;6810;63.824;20.288;2023-05-09T09:22:59;101848.66;;;11.35;61.70
13476;BME280;6810;63.824;20.288;2023-05-09T09:25:56;101861.53;;;11.45;62.11
13476;BME280;6810;63.824;20.288;2023-05-09T09:28:43;101861.06;;;11.56;61.28
13476;BME280;6810;63.824;20.288;2023-05-09T09:31:30;101840.50;;;11.58;61.40
13476;BME280;6810;63.824;20.288;2023-05-09T09:34:21;101856.41;;;11.81;61.45
13476;BME280;6810;63.824;20.288;2023-05-09T09:37:20;101848.63;;;11.95;61.29
13476;BME280;6810;63.824;20.288;2023-05-09T09:40:09;101847.25;;;12.05;60.84
13476;BME280;6810;63.824;20.288;2023-05-09T09:42:56;101856.09;;;12.26;59.59
13476;BME280;6810;63.824;20.288;2023-05-09T09:45:48;101831.66;;;12.33;60.06
13476;BME280;6810;63.824;20.288;2023-05-09T09:48:36;101848.41;;;12.55;60.12
13476;BME280;6810;63.824;20.288;2023-05-09T09:51:26;101836.47;;;12.62;58.90
13476;BME280;6810;63.824;20.288;2023-05-09T09:54:13;101842.72;;;12.80;58.33
13476;BME280;6810;63.824;20.288;2023-05-09T09:57:00;101839.50;;;12.90;59.09
13476;BME280;6810;63.824;20.288;2023-05-09T09:59:57;101836.66;;;13.12;58.49
13476;BME280;6810;63.824;20.288;2023-05-09T10:02:55;101839.34;;;13.29;58.24
13476;BME280;6810;63.824;20.288;2023-05-09T10:05:42;101841.13;;;13.45;58.39
13476;BME280;6810;63.824;20.288;2023-05-09T10:08:29;101823.91;;;13.51;57.63
13476;BME280;6810;63.824;20.288;2023-05-09T10:11:17;101836.22;;;13.70;57.05
13476;BME280;6810;63.824;20.288;2023-05-09T10:14:04;101824.94;;;13.81;56.50
13476;BME280;6810;63.824;20.288;2023-05-09T10:16:54;101823.31;;;13.94;56.12
13476;BME280;6810;63.824;20.288;2023-05-09T10:19:43;101818.84;;;14.10;55.85
13476;BME280;6810;63.824;20.288;2023-05-09T10:22:32;101820.63;;;14.27;55.35
13476;BME280;6810;63.824;20.288;2023-05-09T10:25:26;101818.78;;;14.43;54.32
13476;BME280;6810;63.824;20.288;2023-05-09T10:28:17;101815.19;;;14.59;54.37
13476;BME280;6810;63.824;20.288;2023-05-09T10:31:26;101798.69;;;14.81;53.90
13476;BME280;6810;63.824;20.288;2023-05-09T10:34:14;101790.75;;;14.93;53.52
13476;BME280;6810;63.824;20.288;2023-05-09T10:37:01;101780.06;;;15.07;52.76
13476;BME280;6810;63.824;20.288;2023-05-09T10:39:50;101776.56;;;15.21;52.16
13476;BME280;6810;63.824;20.288;2023-05-09T10:42:37;101790.28;;;15.46;52.01
13476;BME280;6810;63.824;20.288;2023-05-09T10:45:24;101770.19;;;15.51;51.41
13476;BME280;6810;63.824;20.288;2023-05-09T10:48:12;101792.03;;;15.75;51.31
13476;BME280;6810;63.824;20.288;2023-05-09T10:51:03;101750.34;;;15.68;50.95
13476;BME280;6810;63.824;20.288;2023-05-09T10:53:50;101744.94;;;15.82;50.52
13476;BME280;6810;63.824;20.288;2023-05-09T10:56:37;101780.09;;;16.07;50.08
13476;BME280;6810;63.824;20.288;2023-05-09T10:59:36;101778.03;;;16.25;49.76
13476;BME280;6810;63.824;20.288;2023-05-09T11:02:24;101774.09;;;16.30;49.40
13476;BME280;6810;63.824;20.288;2023-05-09T11:05:13;101768.41;;;16.35;48.74
13476;BME280;6810;63.824;20.288;2023-05-09T11:08:27;101773.00;;;16.47;49.32
13476;BME280;6810;63.824;20.288;2023-05-09T11:11:22;101775.97;;;16.56;49.04
13476;BME280;6810;63.824;20.288;2023-05-09T11:14:28;101789.19;;;16.73;48.29
13476;BME280;6810;63.824;20.288;2023-05-09T11:20:08;101791.78;;;16.87;47.97
13476;BME280;6810;63.824;20.288;2023-05-09T11:22:56;101778.22;;;16.89;47.49
13476;BME280;6810;63.824;20.288;2023-05-09T11:25:47;101787.53;;;16.97;47.44
13476;BME280;6810;63.824;20.288;2023-05-09T11:28:36;101772.97;;;17.00;47.32
13476;BME280;6810;63.824;20.288;2023-05-09T11:31:24;101754.53;;;16.94;47.09
13476;BME280;6810;63.824;20.288;2023-05-09T11:34:11;101780.53;;;17.07;46.54
13476;BME280;6810;63.824;20.288;2023-05-09T11:37:13;101773.88;;;17.13;47.15
13476;BME280;6810;63.824;20.288;2023-05-09T11:40:01;101742.41;;;17.01;46.52
13476;BME280;6810;63.824;20.288;2023-05-09T11:42:51;101767.63;;;17.25;46.20
13476;BME280;6810;63.824;20.288;2023-05-09T11:45:39;101779.38;;;17.37;45.80
13476;BME280;6810;63.824;20.288;2023-05-09T11:48:27;101759.03;;;17.33;45.95
13476;BME280;6810;63.824;20.288;2023-05-09T11:51:17;101777.63;;;17.50;45.15
13476;BME280;6810;63.824;20.288;2023-05-09T11:54:06;101793.03;;;17.48;45.25
13476;BME280;6810;63.824;20.288;2023-05-09T11:56:53;101776.19;;;17.44;45.61
13476;BME280;6810;63.824;20.288;2023-05-09T11:59:40;101767.97;;;17.33;44.86
13476;BME280;6810;63.824;20.288;2023-05-09T12:02:28;101782.63;;;17.29;45.24
13476;BME280;6810;63.824;20.288;2023-05-09T12:05:17;101777.19;;;17.16;45.29
13476;BME280;6810;63.824;20.288;2023-05-09T12:08:05;101744.94;;;16.90;45.32
13476;BME280;6810;63.824;20.288;2023-05-09T12:10:53;101769.34;;;17.01;45.07
13476;BME280;6810;63.824;20.288;2023-05-09T12:13:47;101771.78;;;16.91;45.47
13476;BME280;6810;63.824;20.288;2023-05-09T12:16:44;101772.41;;;16.82;46.05
13476;BME280;6810;63.824;20.288;2023-05-09T12:19:31;101750.56;;;16.60;45.64
13476;BME280;6810;63.824;20.288;2023-05-09T12:22:18;101781.09;;;16.73;45.45
13476;BME280;6810;63.824;20.288;2023-05-09T12:25:07;101784.00;;;16.70;45.80
13476;BME280;6810;63.824;20.288;2023-05-09T12:27:55;101769.19;;;16.63;45.91
13476;BME280;6810;63.824;20.288;2023-05-09T12:30:43;101776.41;;;16.63;45.98
13476;BME280;6810;63.824;20.288;2023-05-09T12:33:30;101769.31;;;16.62;46.12
13476;BME280;6810;63.824;20.288;2023-05-09T12:36:17;101774.59;;;16.63;45.44
13476;BME280;6810;63.824;20.288;2023-05-09T12:39:08;101752.88;;;16.52;45.70
13476;BME280;6810;63.824;20.288;2023-05-09T12:41:58;101780.75;;;16.65;45.76
13476;BME280;6810;63.824;20.288;2023-05-09T12:44:49;101768.63;;;16.58;46.00
13476;BME280;6810;63.824;20.288;2023-05-09T12:47:37;101777.94;;;16.67;45.96
13476;BME280;6810;63.824;20.288;2023-05-09T12:50:31;101766.75;;;16.73;45.67
13476;BME280;6810;63.824;20.288;2023-05-09T12:53:25;101771.84;;;16.77;45.18
13476;BME280;6810;63.824;20.288;2023-05-09T12:56:17;101775.00;;;16.84;45.72
13476;BME280;6810;63.824;20.288;2023-05-09T12:59:09;101775.63;;;16.87;45.03
13476;BME280;6810;63.824;20.288;2023-05-09T13:01:58;101758.69;;;16.73;44.72
13476;BME280;6810;63.824;20.288;2023-05-09T13:04:45;101781.75;;;16.77;44.81
13476;BME280;6810;63.824;20.288;2023-05-09T13:10:26;101771.28;;;16.46;44.27
13476;BME280;6810;63.824;20.288;2023-05-09T13:13:17;101760.16;;;16.24;45.28
13476;BME280;6810;63.824;20.288;2023-05-09T13:16:04;101779.41;;;16.18;44.55
13476;BME280;6810;63.824;20.288;2023-05-09T13:18:52;101769.53;;;15.90;44.70
13476;BME280;6810;63.824;20.288;2023-05-09T13:21:39;101761.47;;;15.62;45.19
13476;BME280;6810;63.824;20.288;2023-05-09T13:24:27;101765.31;;;15.44;45.69
13476;BME280;6810;63.824;20.288;2023-05-09T13:27:14;101736.63;;;15.15;46.09
13476;BME280;6810;63.824;20.288;2023-05-09T13:30:01;101778.31;;;15.22;46.23
13476;BME280;6810;63.824;20.288;2023-05-09T13:32:49;101786.59;;;15.03;45.74
13476;BME280;6810;63.824;20.288;2023-05-09T13:35:51;101784.22;;;14.83;46.57
13476;BME280;6810;63.824;20.288;2023-05-09T13:38:38;101781.47;;;14.69;47.18
13476;BME280;6810;63.824;20.288;2023-05-09T13:41:26;101784.00;;;14.57;47.24
13476;BME280;6810;63.824;20.288;2023-05-09T13:44:13;101793.38;;;14.50;47.79
13476;BME280;6810;63.824;20.288;2023-05-09T13:47:00;101788.25;;;14.45;47.76
13476;BME280;6810;63.824;20.288;2023-05-09T13:49:47;101789.47;;;14.40;48.06
13476;BME280;6810;63.824;20.288;2023-05-09T13:52:35;101793.03;;;14.40;48.07
13476;BME280;6810;63.824;20.288;2023-05-09T13:55:22;101785.84;;;14.41;47.90
13476;BME280;6810;63.824;20.288;2023-05-09T13:58:09;101786.13;;;14.36;48.02
13476;BME280;6810;63.824;20.288;2023-05-09T14:00:56;101798.38;;;14.40;48.18
13476;BME280;6810;63.824;20.288;2023-05-09T14:03:44;101784.44;;;14.34;48.80
13476;BME280;6810;63.824;20.288;2023-05-09T14:06:31;101797.78;;;14.35;48.38
13476;BME280;6810;63.824;20.288;2023-05-09T14:09:18;101787.13;;;14.34;48.45
13476;BME280;6810;63.824;20.288;2023-05-09T14:12:05;101779.25;;;14.31;48.57
13476;BME280;6810;63.824;20.288;2023-05-09T14:14:53;101779.25;;;14.31;47.88
13476;BME280;6810;63.824;20.288;2023-05-09T14:17:40;101778.50;;;14.29;48.74
13476;BME280;6810;63.824;20.288;2023-05-09T14:20:27;101767.38;;;14.19;48.37
13476;BME280;6810;63.824;20.288;2023-05-09T14:23:14;101744.81;;;13.92;48.54
13476;BME280;6810;63.824;20.288;2023-05-09T14:26:02;101774.19;;;14.09;48.67
13476;BME280;6810;63.824;20.288;2023-05-09T14:28:48;101776.22;;;14.06;48.50
13476;BME280;6810;63.824;20.288;2023-05-09T14:31:36;101766.25;;;13.92;48.49
13476;BME280;6810;63.824;20.288;2023-05-09T14:34:23;101776.28;;;13.88;49.21
13476;BME280;6810;63.824;20.288;2023-05-09T14:37:10;101719.00;;;13.58;48.89
13476;BME280;6810;63.824;20.288;2023-05-09T14:40:00;101777.31;;;13.86;49.58
13476;BME280;6810;63.824;20.288;2023-05-09T14:42:47;101707.38;;;13.42;49.44
13476;BME280;6810;63.824;20.288;2023-05-09T14:45:34;101717.69;;;13.50;49.47
13476;BME280;6810;63.824;20.288;2023-05-09T14:48:21;101713.69;;;13.41;49.41
13476;BME280;6810;63.824;20.288;2023-05-09T14:51:08;101751.66;;;13.65;49.52
13476;BME280;6810;63.824;20.288;2023-05-09T14:53:56;101765.28;;;13.77;49.20
13476;BME280;6810;63.824;20.288;2023-05-09T14:56:43;101768.47;;;13.84;49.56
13476;BME280;6810;63.824;20.288;2023-05-09T14:59:30;101767.28;;;13.89;49.73
13476;BME280;6810;63.824;20.288;2023-05-09T15:02:17;101762.44;;;13.96;49.18
13476;BME280;6810;63.824;20.288;2023-05-09T15:05:05;101772.13;;;13.98;49.44